Time;durP1;ratioP1;P1;durP2;ratioP2;P2;SDS_P1;SDS_P2;PMS_P1;PMS_P2;Temp;Humidity;BMP_temperature;BMP_pressure;BME280_temperature;BME280_humidity;BME280_pressure;Samples;Min_cycle;Max_cycle;Signal;HPM_P1;HPM_P2
2023/05/19 00:01:17;;;;;;;9.10;3.58;;;10.00;99.90;;;;;;5111042;28;20019;-42
2023/05/19 00:03:51;;;;;;;9.68;3.80;;;10.00;99.90;;;;;;5106554;28;20051;-43
2023/05/19 00:06:22;;;;;;;7.55;3.65;;;10.00;99.90;;;;;;5089875;28;20032;-43
2023/05/19 00:08:49;;;;;;;9.48;3.50;;;10.00;99.90;;;;;;5104369;28;20027;-43
2023/05/19 00:11:15;;;;;;;8.07;4.05;;;10.00;99.90;;;;;;5110764;28;20043;-43
2023/05/19 00:13:41;;;;;;;10.00;3.97;;;10.00;99.90;;;;;;5103873;28;20474;-43
2023/05/19 00:16:07;;;;;;;12.27;4.35;;;10.00;99.90;;;;;;5106152;28;20424;-42
2023/05/19 00:18:33;;;;;;;12.27;4.32;;;10.00;99.90;;;;;;5110362;28;20543;-42
2023/05/19 00:20:59;;;;;;;10.75;4.22;;;10.00;99.90;;;;;;5110271;28;20099;-44
2023/05/19 00:23:25;;;;;;;8.38;3.45;;;10.00;99.90;;;;;;5109760;28;20111;-45
2023/05/19 00:25:51;;;;;;;9.73;3.85;;;9.90;99.90;;;;;;5107976;28;20020;-43
2023/05/19 00:28:16;;;;;;;9.75;3.53;;;10.00;99.90;;;;;;5093281;28;20028;-43
2023/05/19 00:30:42;;;;;;;12.00;4.30;;;9.90;99.90;;;;;;5108358;28;20080;-43
2023/05/19 00:33:07;;;;;;;9.48;3.92;;;9.90;99.90;;;;;;5109291;28;20436;-43
2023/05/19 00:35:33;;;;;;;13.15;3.92;;;9.90;99.90;;;;;;5092165;28;20398;-44
2023/05/19 00:37:58;;;;;;;12.88;4.10;;;9.90;99.90;;;;;;5096783;28;20027;-44
2023/05/19 00:40:25;;;;;;;9.07;4.13;;;9.90;99.90;;;;;;5109804;28;20027;-46
2023/05/19 00:42:51;;;;;;;10.13;3.70;;;9.90;99.90;;;;;;5109631;28;20080;-43
2023/05/19 00:45:16;;;;;;;11.88;4.22;;;9.90;99.90;;;;;;5106220;28;20480;-43
2023/05/19 00:47:42;;;;;;;13.75;4.30;;;9.80;99.90;;;;;;5109556;28;20035;-44
2023/05/19 00:50:08;;;;;;;9.25;4.93;;;9.80;99.90;;;;;;5109897;28;20015;-44
2023/05/19 00:52:34;;;;;;;10.95;4.25;;;9.80;99.90;;;;;;5109238;28;20107;-46
2023/05/19 00:54:59;;;;;;;9.13;4.03;;;9.80;99.90;;;;;;5109520;28;20047;-43
2023/05/19 00:57:25;;;;;;;9.15;4.75;;;9.80;99.90;;;;;;5108027;28;20043;-45
2023/05/19 00:59:51;;;;;;;6.78;4.32;;;9.80;99.90;;;;;;5109395;28;20456;-43
2023/05/19 01:02:17;;;;;;;15.70;4.65;;;9.80;99.90;;;;;;5108446;28;20074;-45
2023/05/19 01:04:43;;;;;;;9.68;3.95;;;9.80;99.90;;;;;;5098831;28;20095;-44
2023/05/19 01:07:11;;;;;;;11.07;4.25;;;9.70;99.90;;;;;;5088840;28;20127;-44
2023/05/19 01:09:36;;;;;;;10.38;4.60;;;9.70;99.90;;;;;;5101723;28;20023;-46
2023/05/19 01:12:02;;;;;;;10.18;4.03;;;9.70;99.90;;;;;;5107443;28;20473;-47
2023/05/19 01:14:29;;;;;;;8.32;4.13;;;9.70;99.90;;;;;;5105712;28;20028;-46
2023/05/19 01:17:19;;;;;;;10.32;4.70;;;9.60;99.90;;;;;;5107677;28;20701;-45
2023/05/19 01:20:07;;;;;;;14.13;4.55;;;9.70;99.90;;;;;;5095466;27;20035;-47
2023/05/19 01:23:10;;;;;;;9.27;3.92;;;9.60;99.90;;;;;;5100527;28;20024;-44
2023/05/19 01:25:44;;;;;;;10.65;4.53;;;9.60;99.90;;;;;;5109525;28;20034;-43
2023/05/19 01:28:30;;;;;;;9.68;3.85;;;9.60;99.90;;;;;;5109306;28;20032;-43
2023/05/19 01:30:59;;;;;;;10.40;4.30;;;9.60;99.90;;;;;;5108767;28;20504;-43
2023/05/19 01:33:28;;;;;;;10.88;4.80;;;9.60;99.90;;;;;;5108420;28;20424;-42
2023/05/19 01:35:54;;;;;;;12.90;5.20;;;9.50;99.90;;;;;;5083568;28;20085;-43
2023/05/19 01:38:22;;;;;;;7.75;4.20;;;9.60;99.90;;;;;;5098852;28;20062;-44
2023/05/19 01:40:48;;;;;;;10.10;4.20;;;9.50;99.90;;;;;;5109164;28;20238;-43
2023/05/19 01:43:20;;;;;;;10.40;4.40;;;9.50;99.90;;;;;;5108567;28;20027;-42
2023/05/19 01:45:46;;;;;;;8.93;4.13;;;9.50;99.90;;;;;;5106065;28;20507;-44
2023/05/19 01:48:13;;;;;;;7.88;4.28;;;9.50;99.90;;;;;;5107212;28;20032;-42
2023/05/19 01:50:39;;;;;;;10.75;4.82;;;9.50;99.90;;;;;;5108769;28;20039;-44
2023/05/19 01:53:05;;;;;;;9.82;4.43;;;9.60;99.90;;;;;;5108587;28;20020;-43
2023/05/19 01:55:30;;;;;;;14.20;5.13;;;9.50;99.90;;;;;;5107461;28;20080;-43
2023/05/19 01:58:35;;;;;;;9.25;4.38;;;9.50;99.90;;;;;;5108881;28;20484;-43
2023/05/19 02:01:22;;;;;;;15.35;4.85;;;9.50;99.90;;;;;;5108870;28;20427;-43
2023/05/19 02:04:06;;;;;;;6.75;4.20;;;9.50;99.90;;;;;;5105581;28;20454;-43
2023/05/19 02:06:40;;;;;;;8.02;4.10;;;9.50;99.90;;;;;;5086896;28;20028;-42
2023/05/19 02:09:09;;;;;;;10.25;4.00;;;9.50;99.90;;;;;;5105307;28;20666;-43
2023/05/19 02:11:59;;;;;;;11.32;4.07;;;9.50;99.90;;;;;;5108503;28;20098;-44
2023/05/19 02:14:43;;;;;;;16.25;5.82;;;9.40;99.90;;;;;;5105298;28;20270;-43
2023/05/19 02:17:11;;;;;;;7.07;3.83;;;9.50;99.90;;;;;;5108334;28;20016;-43
2023/05/19 02:19:38;;;;;;;10.00;5.28;;;9.40;99.90;;;;;;5108711;28;20024;-44
2023/05/19 02:22:04;;;;;;;9.95;4.68;;;9.40;99.90;;;;;;5108301;28;20055;-43
2023/05/19 02:24:30;;;;;;;7.15;4.25;;;9.40;99.90;;;;;;5108776;28;20457;-43
2023/05/19 02:26:55;;;;;;;9.32;4.53;;;9.40;99.90;;;;;;5107448;28;20507;-44
2023/05/19 02:29:21;;;;;;;9.77;4.43;;;9.40;99.90;;;;;;5106943;28;20023;-45
2023/05/19 02:31:47;;;;;;;12.02;4.28;;;9.40;99.90;;;;;;5107906;28;20216;-44
2023/05/19 02:34:12;;;;;;;12.13;4.43;;;9.40;99.90;;;;;;5101717;28;20546;-43
2023/05/19 02:36:40;;;;;;;7.47;3.97;;;9.30;99.90;;;;;;5087910;28;20016;-45
2023/05/19 02:39:06;;;;;;;8.90;4.50;;;9.30;99.90;;;;;;5096293;28;20489;-43
2023/05/19 02:41:31;;;;;;;13.30;4.53;;;9.30;99.90;;;;;;5108210;28;20035;-43
2023/05/19 02:43:57;;;;;;;10.95;5.18;;;9.30;99.90;;;;;;5105802;28;20111;-43
2023/05/19 02:46:22;;;;;;;10.07;4.30;;;9.30;99.90;;;;;;5106753;28;20072;-46
2023/05/19 02:48:49;;;;;;;10.50;4.22;;;9.30;99.90;;;;;;5109288;28;20132;-44
2023/05/19 02:51:15;;;;;;;10.20;4.63;;;9.30;99.90;;;;;;5111980;28;20020;-47
2023/05/19 02:53:41;;;;;;;9.65;4.05;;;9.30;99.90;;;;;;5111547;28;20027;-44
2023/05/19 02:56:07;;;;;;;7.00;3.97;;;9.30;99.90;;;;;;5111964;28;20040;-43
2023/05/19 02:58:32;;;;;;;9.82;4.38;;;9.20;99.90;;;;;;5112043;28;20023;-43
2023/05/19 03:00:58;;;;;;;13.05;4.50;;;9.20;99.90;;;;;;5111764;28;20480;-43
2023/05/19 03:03:23;;;;;;;11.63;4.82;;;9.20;99.90;;;;;;5111244;28;20499;-43
2023/05/19 03:05:49;;;;;;;7.70;3.60;;;9.20;99.90;;;;;;5091649;28;20020;-46
2023/05/19 03:08:14;;;;;;;9.23;4.28;;;9.20;99.90;;;;;;5090859;28;20412;-48
2023/05/19 03:10:40;;;;;;;8.95;4.13;;;9.20;99.90;;;;;;5110381;28;20024;-46
2023/05/19 03:13:05;;;;;;;9.48;4.25;;;9.20;99.90;;;;;;5111122;28;20465;-43
2023/05/19 03:15:32;;;;;;;11.77;4.40;;;9.20;99.90;;;;;;5107958;28;20470;-43
2023/05/19 03:17:57;;;;;;;9.30;4.25;;;9.20;99.90;;;;;;5110345;28;20487;-44
2023/05/19 03:20:23;;;;;;;9.60;4.55;;;9.20;99.90;;;;;;5111385;28;20020;-43
2023/05/19 03:22:49;;;;;;;9.80;4.97;;;9.20;99.90;;;;;;5111507;28;20058;-42
2023/05/19 03:25:15;;;;;;;7.72;3.75;;;9.20;99.90;;;;;;5111483;28;20516;-45
2023/05/19 03:27:40;;;;;;;11.02;4.68;;;9.20;99.90;;;;;;5111427;28;20091;-43
2023/05/19 03:30:06;;;;;;;10.15;4.38;;;9.20;99.90;;;;;;5111357;28;20057;-43
2023/05/19 03:32:32;;;;;;;8.35;4.03;;;9.20;99.90;;;;;;5110535;28;20047;-45
2023/05/19 03:34:58;;;;;;;6.82;3.67;;;9.10;99.90;;;;;;5098322;28;20047;-45
2023/05/19 03:37:23;;;;;;;8.88;4.40;;;9.10;99.90;;;;;;5090613;28;20034;-44
2023/05/19 03:39:49;;;;;;;10.75;4.65;;;9.10;99.90;;;;;;5104975;28;20393;-44
2023/05/19 03:42:15;;;;;;;7.75;3.70;;;9.10;99.90;;;;;;5110649;28;20481;-47
2023/05/19 03:44:40;;;;;;;12.60;5.00;;;9.00;99.90;;;;;;5106570;28;20027;-42
2023/05/19 03:47:06;;;;;;;8.50;4.18;;;9.00;99.90;;;;;;5092530;28;20442;-43
2023/05/19 03:49:31;;;;;;;11.05;5.13;;;9.00;99.90;;;;;;5070210;28;20040;-43
2023/05/19 03:51:57;;;;;;;11.25;4.72;;;9.00;99.90;;;;;;5058965;28;20020;-42
2023/05/19 03:54:23;;;;;;;14.55;4.65;;;9.00;99.90;;;;;;5090291;28;20020;-43
2023/05/19 03:56:48;;;;;;;10.60;3.95;;;9.00;99.90;;;;;;5090745;28;20024;-43
2023/05/19 03:59:15;;;;;;;9.60;4.35;;;9.00;99.90;;;;;;5090388;28;20105;-43
2023/05/19 04:01:40;;;;;;;10.32;4.47;;;9.00;99.90;;;;;;5090286;28;20515;-42
2023/05/19 04:04:06;;;;;;;9.30;4.97;;;9.00;99.90;;;;;;5072194;28;20066;-43
2023/05/19 04:06:32;;;;;;;11.32;4.22;;;9.00;99.90;;;;;;5090331;28;20366;-43
2023/05/19 04:08:58;;;;;;;15.52;4.90;;;9.00;99.90;;;;;;5090477;28;20469;-43
2023/05/19 04:11:24;;;;;;;10.02;5.28;;;9.00;99.90;;;;;;5089891;28;20600;-42
2023/05/19 04:13:50;;;;;;;11.40;4.72;;;9.00;99.90;;;;;;5086542;28;20107;-43
2023/05/19 04:16:15;;;;;;;11.10;4.38;;;9.10;99.90;;;;;;5074332;28;20105;-46
2023/05/19 04:18:41;;;;;;;7.03;4.28;;;9.10;99.90;;;;;;5069260;28;20024;-42
2023/05/19 04:21:07;;;;;;;8.93;4.75;;;9.00;99.90;;;;;;5086110;28;20023;-44
2023/05/19 04:23:33;;;;;;;9.50;4.07;;;9.10;99.90;;;;;;5089516;28;20474;-42
2023/05/19 04:26:00;;;;;;;14.80;4.53;;;9.00;99.90;;;;;;5089574;28;20095;-43
2023/05/19 04:28:26;;;;;;;12.98;5.25;;;9.00;99.90;;;;;;5089524;28;20025;-44
2023/05/19 04:30:51;;;;;;;8.57;4.53;;;9.00;99.90;;;;;;5089578;28;20036;-43
2023/05/19 04:33:18;;;;;;;16.63;4.85;;;9.00;99.90;;;;;;5089112;28;20024;-43
2023/05/19 04:35:44;;;;;;;10.98;4.85;;;9.00;99.90;;;;;;5071191;28;20108;-44
2023/05/19 04:38:10;;;;;;;9.20;4.60;;;9.00;99.90;;;;;;5071838;28;20103;-43
2023/05/19 04:40:36;;;;;;;14.73;4.82;;;9.00;99.90;;;;;;5053386;28;20528;-43
2023/05/19 04:43:02;;;;;;;14.02;4.65;;;9.00;99.90;;;;;;5071050;28;20056;-43
2023/05/19 04:45:27;;;;;;;10.27;3.83;;;9.10;99.90;;;;;;5053824;28;20497;-43
2023/05/19 04:47:56;;;;;;;12.45;4.43;;;9.10;99.90;;;;;;5079301;28;20031;-45
2023/05/19 04:50:23;;;;;;;11.82;4.53;;;9.10;99.90;;;;;;5090665;28;20028;-48
2023/05/19 04:52:49;;;;;;;9.60;4.80;;;9.20;99.90;;;;;;5095196;27;20023;-44
2023/05/19 04:55:15;;;;;;;11.82;4.75;;;9.20;99.90;;;;;;5088094;28;20024;-45
2023/05/19 04:57:41;;;;;;;8.88;4.43;;;9.30;99.90;;;;;;5090954;28;20054;-45
2023/05/19 05:00:11;;;;;;;8.70;4.25;;;9.40;99.90;;;;;;5091916;28;20059;-44
2023/05/19 05:02:36;;;;;;;9.02;4.20;;;9.60;99.90;;;;;;5092085;28;20023;-45
2023/05/19 05:05:02;;;;;;;9.43;4.25;;;9.70;99.90;;;;;;5092420;28;20012;-45
2023/05/19 05:07:28;;;;;;;13.05;4.88;;;9.70;99.90;;;;;;5092151;28;20024;-44
2023/05/19 05:09:54;;;;;;;13.25;4.05;;;9.80;99.90;;;;;;5093005;28;20027;-44
2023/05/19 05:12:20;;;;;;;12.85;4.78;;;9.90;99.90;;;;;;5099428;28;20443;-44
2023/05/19 05:14:46;;;;;;;12.57;3.97;;;10.00;99.90;;;;;;5097553;28;20035;-45
2023/05/19 05:17:12;;;;;;;11.35;4.25;;;10.10;99.90;;;;;;5095604;28;20020;-44
2023/05/19 05:19:38;;;;;;;16.55;4.88;;;10.20;99.90;;;;;;5090557;28;20027;-43
2023/05/19 05:22:05;;;;;;;11.30;4.05;;;10.30;99.90;;;;;;5091990;28;20024;-43
2023/05/19 05:24:31;;;;;;;6.00;3.60;;;10.40;99.90;;;;;;5093887;28;20149;-44
2023/05/19 05:26:57;;;;;;;7.38;3.63;;;10.50;99.90;;;;;;5089028;28;20502;-44
2023/05/19 05:29:23;;;;;;;9.35;4.57;;;10.60;99.90;;;;;;5091877;28;20080;-44
2023/05/19 05:31:49;;;;;;;11.48;4.10;;;10.70;99.90;;;;;;5089127;28;20254;-43
2023/05/19 05:34:15;;;;;;;9.73;3.92;;;10.80;99.90;;;;;;5090464;28;20024;-44
2023/05/19 05:36:40;;;;;;;11.70;4.03;;;11.00;99.90;;;;;;5088655;28;20028;-46
2023/05/19 05:39:06;;;;;;;10.20;3.78;;;11.00;99.90;;;;;;5089623;28;20398;-44
2023/05/19 05:41:34;;;;;;;9.02;3.25;;;11.20;99.90;;;;;;5089618;28;20024;-44
2023/05/19 05:44:03;;;;;;;9.65;3.63;;;11.20;99.90;;;;;;5091871;28;20023;-44
2023/05/19 05:46:28;;;;;;;9.95;4.03;;;11.30;99.90;;;;;;5096309;28;20145;-44
2023/05/19 05:48:54;;;;;;;9.23;3.58;;;11.40;99.90;;;;;;5087788;28;20493;-43
2023/05/19 05:51:23;;;;;;;11.77;3.55;;;11.60;99.90;;;;;;5087679;28;20469;-47
2023/05/19 05:53:52;;;;;;;10.77;3.65;;;11.70;99.90;;;;;;5087549;28;20020;-44
2023/05/19 05:56:18;;;;;;;8.90;3.10;;;11.80;99.90;;;;;;5097733;28;20015;-45
2023/05/19 05:58:43;;;;;;;15.85;4.00;;;11.90;99.90;;;;;;5106243;28;20397;-44
2023/05/19 06:01:09;;;;;;;9.52;3.97;;;12.10;99.90;;;;;;5104641;28;20028;-44
2023/05/19 06:03:40;;;;;;;14.65;3.67;;;12.30;99.90;;;;;;5100156;28;20031;-44
2023/05/19 06:06:05;;;;;;;;;;;12.40;99.90;;;;;;5105068;28;20473;-44
2023/05/19 06:08:31;;;;;;;9.48;3.13;;;12.40;99.90;;;;;;5108368;28;19903;-43
2023/05/19 06:10:57;;;;;;;8.63;3.22;;;12.40;99.90;;;;;;5099895;28;20485;-45
2023/05/19 06:13:24;;;;;;;8.57;3.60;;;12.50;99.90;;;;;;5106532;28;20019;-44
2023/05/19 06:15:50;;;;;;;13.20;3.53;;;12.50;99.90;;;;;;5107398;28;20016;-46
2023/05/19 06:18:16;;;;;;;9.13;2.60;;;12.50;99.90;;;;;;5087613;28;20016;-45
2023/05/19 06:20:42;;;;;;;9.07;3.33;;;12.60;99.90;;;;;;5090585;28;20024;-45
2023/05/19 06:23:07;;;;;;;8.82;3.63;;;12.60;99.90;;;;;;5103249;28;20060;-43
2023/05/19 06:25:33;;;;;;;10.25;3.45;;;12.60;99.90;;;;;;5110819;28;20066;-44
2023/05/19 06:27:58;;;;;;;7.10;3.50;;;12.50;99.90;;;;;;5106896;28;20106;-44
2023/05/19 06:30:24;;;;;;;10.35;3.55;;;12.60;99.90;;;;;;5110574;28;20031;-44
2023/05/19 06:32:50;;;;;;;5.93;2.95;;;12.60;99.90;;;;;;5104015;28;20024;-43
2023/05/19 06:35:15;;;;;;;7.38;3.03;;;12.70;99.90;;;;;;5087530;28;20020;-44
2023/05/19 06:37:41;;;;;;;11.60;2.85;;;12.80;99.90;;;;;;5103209;28;20128;-45
2023/05/19 06:40:07;;;;;;;6.50;3.03;;;12.80;99.90;;;;;;5110857;28;20028;-44
2023/05/19 06:42:32;;;;;;;8.55;3.22;;;12.80;99.90;;;;;;5093345;28;20331;-43
2023/05/19 06:44:58;;;;;;;7.95;3.28;;;12.80;99.90;;;;;;5112213;28;20024;-43
2023/05/19 06:47:23;;;;;;;6.32;2.75;;;12.80;99.90;;;;;;5090019;28;20025;-45
2023/05/19 06:49:53;;;;;;;7.88;2.80;;;12.80;99.90;;;;;;5076970;28;20084;-46
2023/05/19 06:52:19;;;;;;;6.20;3.07;;;12.90;99.90;;;;;;5073073;28;20020;-44
2023/05/19 06:54:45;;;;;;;9.27;3.20;;;12.90;99.90;;;;;;5091901;28;20511;-44
2023/05/19 06:57:10;;;;;;;8.02;3.08;;;12.90;99.90;;;;;;5071621;28;20087;-45
2023/05/19 06:59:36;;;;;;;5.68;2.83;;;12.90;99.90;;;;;;5083973;28;20362;-46
2023/05/19 07:02:03;;;;;;;8.18;3.20;;;12.90;99.90;;;;;;5091050;28;20024;-45
2023/05/19 07:04:28;;;;;;;5.53;2.92;;;12.90;99.90;;;;;;5091921;28;20024;-43
2023/05/19 07:06:54;;;;;;;3.85;2.50;;;12.90;99.90;;;;;;5091828;28;20020;-43
2023/05/19 07:09:20;;;;;;;8.65;2.95;;;13.00;99.90;;;;;;5073236;28;20024;-45
2023/05/19 07:11:45;;;;;;;9.60;3.20;;;13.00;99.90;;;;;;5091274;28;20051;-43
2023/05/19 07:14:11;;;;;;;8.82;2.90;;;13.10;99.90;;;;;;5090827;28;20114;-43
2023/05/19 07:16:36;;;;;;;10.70;3.10;;;13.20;99.90;;;;;;5091188;28;20414;-44
2023/05/19 07:19:02;;;;;;;6.90;3.20;;;13.30;99.90;;;;;;5090815;28;20024;-45
2023/05/19 07:21:27;;;;;;;9.82;4.20;;;13.30;99.90;;;;;;5090844;28;20024;-43
2023/05/19 07:23:53;;;;;;;9.50;3.55;;;13.30;99.90;;;;;;5072724;28;20509;-44
2023/05/19 07:26:18;;;;;;;9.98;3.17;;;13.50;99.90;;;;;;5079567;28;20031;-46
2023/05/19 07:28:44;;;;;;;11.55;3.08;;;13.60;99.90;;;;;;5075893;28;20027;-45
2023/05/19 07:31:09;;;;;;;6.72;2.75;;;13.80;99.90;;;;;;5090794;28;20119;-44
2023/05/19 07:33:35;;;;;;;8.73;3.67;;;13.90;99.90;;;;;;5090224;28;20580;-44
2023/05/19 07:36:01;;;;;;;10.32;3.13;;;13.90;99.90;;;;;;5090606;28;20073;-44
2023/05/19 07:38:27;;;;;;;12.43;3.63;;;14.10;99.90;;;;;;5090894;28;20496;-45
2023/05/19 07:40:53;;;;;;;9.00;2.80;;;14.20;99.50;;;;;;5072455;28;20165;-46
2023/05/19 07:43:18;;;;;;;5.90;2.90;;;14.30;99.90;;;;;;5072029;28;20589;-44
2023/05/19 07:45:44;;;;;;;6.45;2.90;;;14.50;99.90;;;;;;5091431;28;20224;-47
2023/05/19 07:48:09;;;;;;;5.75;3.10;;;14.50;99.30;;;;;;5103629;28;20035;-47
2023/05/19 07:50:35;;;;;;;8.57;3.10;;;14.70;99.90;;;;;;5111405;28;20019;-44
2023/05/19 07:53:01;;;;;;;12.68;3.20;;;14.90;99.20;;;;;;5110624;28;20022;-45
2023/05/19 07:55:26;;;;;;;10.73;2.65;;;15.10;98.70;;;;;;5106403;28;20473;-44
2023/05/19 07:57:52;;;;;;;8.02;3.00;;;15.20;99.00;;;;;;5090258;28;20027;-44
2023/05/19 08:00:18;;;;;;;9.35;2.90;;;15.40;98.50;;;;;;5096459;28;20020;-47
2023/05/19 08:02:44;;;;;;;10.07;2.88;;;15.60;98.20;;;;;;5109850;28;20099;-45
2023/05/19 08:05:10;;;;;;;4.95;2.30;;;15.90;97.30;;;;;;5109371;28;20020;-44
2023/05/19 08:07:36;;;;;;;8.38;3.13;;;16.00;97.00;;;;;;5110634;28;20015;-45
2023/05/19 08:10:01;;;;;;;6.40;3.08;;;16.30;96.50;;;;;;5110260;28;20050;-47
2023/05/19 08:12:27;;;;;;;6.60;2.55;;;16.40;97.30;;;;;;5102656;28;20036;-48
2023/05/19 08:14:53;;;;;;;6.93;2.85;;;16.50;97.10;;;;;;5109952;28;20042;-45
2023/05/19 08:17:18;;;;;;;6.38;2.55;;;16.90;95.40;;;;;;5109095;28;20020;-44
2023/05/19 08:19:44;;;;;;;6.57;2.75;;;17.40;94.60;;;;;;5110199;28;20485;-47
2023/05/19 08:22:10;;;;;;;6.70;2.60;;;18.10;93.70;;;;;;5110210;28;20045;-47
2023/05/19 08:24:35;;;;;;;12.25;2.95;;;18.90;93.70;;;;;;5110288;28;20469;-44
2023/05/19 08:27:01;;;;;;;5.18;2.10;;;20.10;90.90;;;;;;5092473;28;20031;-42
2023/05/19 08:29:26;;;;;;;8.00;2.40;;;21.60;83.00;;;;;;5090849;28;20042;-42
2023/05/19 08:31:52;;;;;;;4.13;2.20;;;23.40;75.90;;;;;;5110251;28;20031;-41
2023/05/19 08:34:18;;;;;;;5.00;2.42;;;24.20;70.70;;;;;;5109438;28;20039;-43
2023/05/19 08:36:44;;;;;;;4.13;2.03;;;25.30;67.10;;;;;;5109964;28;20469;-42
2023/05/19 08:39:10;;;;;;;6.20;2.30;;;26.10;63.80;;;;;;5109891;28;20016;-42
2023/05/19 08:41:36;;;;;;;5.70;2.15;;;26.80;60.60;;;;;;5106104;28;20022;-43
2023/05/19 08:44:02;;;;;;;4.00;1.92;;;27.20;59.70;;;;;;5089046;28;20466;-43
2023/05/19 08:46:28;;;;;;;4.78;2.00;;;27.50;55.70;;;;;;5091317;28;20027;-42
2023/05/19 08:49:03;;;;;;;5.40;1.95;;;27.40;56.40;;;;;;5109276;28;20034;-42
2023/05/19 08:51:30;;;;;;;9.30;2.25;;;27.30;55.20;;;;;;5109326;28;20012;-45
2023/05/19 08:54:03;;;;;;;5.35;1.98;;;26.90;55.80;;;;;;5109199;28;20026;-43
2023/05/19 08:56:30;;;;;;;4.28;1.80;;;26.40;55.90;;;;;;5096599;28;20028;-42
2023/05/19 08:58:59;;;;;;;5.38;2.75;;;26.10;55.50;;;;;;5095903;28;20024;-42
2023/05/19 09:01:25;;;;;;;4.78;2.05;;;25.30;53.60;;;;;;5109544;28;20039;-43
2023/05/19 09:03:51;;;;;;;6.20;2.22;;;25.30;55.40;;;;;;5109248;28;20388;-43
2023/05/19 09:06:17;;;;;;;8.38;2.08;;;25.50;56.80;;;;;;5109323;28;20027;-47
2023/05/19 09:08:43;;;;;;;3.40;1.90;;;26.00;54.60;;;;;;5109465;28;20028;-43
2023/05/19 09:11:09;;;;;;;5.63;1.95;;;27.60;52.10;;;;;;5109236;28;20430;-44
2023/05/19 09:13:35;;;;;;;8.30;2.20;;;28.10;51.80;;;;;;5109416;28;20024;-43
2023/05/19 09:16:02;;;;;;;6.93;2.28;;;28.50;53.50;;;;;;5109836;28;20026;-45
2023/05/19 09:18:27;;;;;;;4.88;1.85;;;29.10;49.20;;;;;;5107747;28;20020;-43
2023/05/19 09:20:59;;;;;;;4.93;1.80;;;29.60;49.40;;;;;;5109331;28;20391;-43
2023/05/19 09:23:28;;;;;;;3.30;1.70;;;30.40;46.70;;;;;;5108581;28;20049;-43
2023/05/19 09:25:54;;;;;;;3.55;1.80;;;31.40;46.90;;;;;;5101338;28;20020;-43
2023/05/19 09:28:31;;;;;;;5.35;2.28;;;31.30;45.90;;;;;;5090917;28;20111;-43
2023/05/19 09:31:10;;;;;;;4.20;1.80;;;30.20;44.70;;;;;;5109258;28;20481;-44
2023/05/19 09:33:38;;;;;;;3.80;1.85;;;30.60;47.30;;;;;;5108777;28;20015;-47
2023/05/19 09:36:07;;;;;;;8.65;1.80;;;29.90;47.20;;;;;;5109287;28;20015;-44
2023/05/19 09:38:34;;;;;;;2.97;1.90;;;29.00;47.20;;;;;;5108972;28;20497;-43
2023/05/19 09:41:00;;;;;;;5.97;2.20;;;27.80;48.40;;;;;;5109016;28;20016;-45
2023/05/19 09:43:30;;;;;;;6.93;2.10;;;26.90;48.90;;;;;;5100557;28;20080;-43
2023/05/19 09:46:02;;;;;;;4.65;1.95;;;25.50;50.80;;;;;;5108304;28;20075;-43
2023/05/19 09:48:29;;;;;;;3.42;1.80;;;25.10;52.50;;;;;;5108257;28;20114;-42
2023/05/19 09:50:56;;;;;;;4.43;1.98;;;24.30;53.30;;;;;;5091987;28;20016;-44
2023/05/19 09:53:22;;;;;;;4.50;1.80;;;23.40;55.50;;;;;;5089579;28;20538;-43
2023/05/19 09:55:49;;;;;;;6.30;2.33;;;22.90;54.80;;;;;;5101244;28;20017;-43
2023/05/19 09:58:16;;;;;;;4.78;2.15;;;22.10;56.10;;;;;;5091532;28;20095;-43
2023/05/19 10:00:42;;;;;;;8.88;1.88;;;22.00;58.80;;;;;;5113338;28;20508;-43
2023/05/19 10:03:08;;;;;;;3.13;1.92;;;23.30;55.90;;;;;;5113036;28;20051;-43
2023/05/19 10:05:34;;;;;;;4.38;1.83;;;24.20;56.00;;;;;;5112728;28;20067;-43
2023/05/19 10:08:01;;;;;;;4.50;1.77;;;24.20;53.40;;;;;;5112799;28;20072;-43
2023/05/19 10:10:28;;;;;;;6.57;2.15;;;23.60;53.40;;;;;;5112701;28;20207;-44
2023/05/19 10:12:54;;;;;;;5.38;1.85;;;23.20;54.50;;;;;;5112827;28;20023;-42
2023/05/19 10:15:19;;;;;;;3.63;1.65;;;22.60;55.50;;;;;;5112455;28;20011;-43
2023/05/19 10:17:45;;;;;;;3.92;2.22;;;22.10;57.40;;;;;;5112664;28;20016;-43
2023/05/19 10:20:13;;;;;;;7.90;2.03;;;22.30;56.60;;;;;;5100283;28;20034;-46
2023/05/19 10:22:39;;;;;;;3.20;1.73;;;23.50;55.50;;;;;;5102227;28;20109;-46
2023/05/19 10:25:06;;;;;;;4.32;1.85;;;24.00;53.50;;;;;;5111270;28;20428;-43
2023/05/19 10:27:36;;;;;;;3.63;2.22;;;23.90;53.70;;;;;;5092117;28;20020;-43
2023/05/19 10:30:15;;;;;;;3.25;1.98;;;23.80;54.20;;;;;;5099529;28;20099;-44
2023/05/19 10:32:42;;;;;;;3.13;1.88;;;23.30;54.90;;;;;;5096342;27;20024;-42
2023/05/19 10:35:08;;;;;;;4.70;1.83;;;22.90;54.80;;;;;;5090885;28;20477;-44
2023/05/19 10:38:14;;;;;;;3.58;1.67;;;23.60;53.00;;;;;;5091908;28;20055;-43
2023/05/19 10:41:06;;;;;;;2.55;1.73;;;25.20;52.40;;;;;;5089987;28;20212;-43
2023/05/19 10:43:47;;;;;;;5.55;1.70;;;25.30;49.60;;;;;;5091932;28;20032;-43
2023/05/19 10:46:12;;;;;;;3.95;1.73;;;24.90;48.90;;;;;;5092335;28;20115;-42
2023/05/19 10:48:43;;;;;;;4.38;1.77;;;24.80;49.50;;;;;;5093476;28;20107;-44
2023/05/19 10:51:11;;;;;;;3.13;1.42;;;24.50;50.50;;;;;;5093404;28;20012;-43
2023/05/19 10:53:45;;;;;;;2.58;1.70;;;24.20;50.90;;;;;;5111707;28;20507;-43
2023/05/19 10:56:11;;;;;;;4.45;1.65;;;24.00;54.10;;;;;;5101638;28;20064;-45
2023/05/19 10:58:42;;;;;;;2.83;1.75;;;24.90;50.10;;;;;;5095213;28;20022;-43
2023/05/19 11:01:12;;;;;;;2.63;1.50;;;25.90;48.10;;;;;;5110936;28;20024;-42
2023/05/19 11:03:50;;;;;;;3.10;1.92;;;25.40;49.40;;;;;;5094401;28;20020;-44
2023/05/19 11:06:27;;;;;;;2.05;1.70;;;25.00;50.40;;;;;;5111684;28;20028;-43
2023/05/19 11:08:55;;;;;;;3.85;1.70;;;24.20;52.20;;;;;;5110428;28;20503;-42
2023/05/19 11:11:21;;;;;;;3.33;1.30;;;24.40;51.10;;;;;;5111386;28;20020;-43
2023/05/19 11:13:52;;;;;;;6.18;2.30;;;24.70;51.90;;;;;;5111407;28;20373;-43
2023/05/19 11:16:19;;;;;;;30.25;23.25;;;24.10;52.20;;;;;;5111720;28;20016;-42
2023/05/19 11:18:49;;;;;;;12.93;10.52;;;23.40;53.10;;;;;;5110207;28;20051;-43
2023/05/19 11:21:15;;;;;;;3.08;1.75;;;23.50;54.50;;;;;;5111468;28;20084;-46
2023/05/19 11:23:40;;;;;;;3.38;1.75;;;23.60;55.00;;;;;;5111225;28;20020;-44
2023/05/19 11:26:09;;;;;;;6.65;1.92;;;23.80;55.40;;;;;;5101857;28;20031;-44
2023/05/19 11:28:36;;;;;;;2.85;1.80;;;23.90;55.00;;;;;;5089674;28;20269;-44
2023/05/19 11:31:02;;;;;;;5.53;2.30;;;23.90;54.30;;;;;;5090554;28;20109;-43
2023/05/19 11:33:27;;;;;;;5.50;2.00;;;23.90;52.40;;;;;;5090414;28;20362;-42
2023/05/19 11:35:56;;;;;;;3.22;1.83;;;23.50;53.10;;;;;;5090325;28;20013;-43
2023/05/19 11:38:22;;;;;;;2.60;1.70;;;23.50;53.60;;;;;;5090588;28;20012;-43
2023/05/19 11:40:51;;;;;;;2.97;1.80;;;23.30;53.90;;;;;;5090401;28;20043;-45
2023/05/19 11:43:17;;;;;;;3.00;1.55;;;23.40;53.30;;;;;;5087295;28;20063;-46
2023/05/19 11:45:43;;;;;;;3.75;1.85;;;24.00;54.70;;;;;;5090523;28;20526;-43
2023/05/19 11:48:12;;;;;;;5.57;1.98;;;23.90;54.10;;;;;;5090057;28;20024;-46
2023/05/19 11:50:40;;;;;;;2.50;1.75;;;23.60;51.40;;;;;;5087726;28;20031;-43
2023/05/19 11:53:06;;;;;;;3.85;1.80;;;23.00;52.90;;;;;;5088851;28;20024;-46
2023/05/19 11:55:32;;;;;;;11.82;1.83;;;23.10;54.90;;;;;;5089529;28;20194;-46
2023/05/19 11:58:02;;;;;;;3.58;1.98;;;23.90;53.20;;;;;;5090550;28;20070;-44
2023/05/19 12:00:29;;;;;;;4.22;2.10;;;24.30;51.50;;;;;;5088853;28;20274;-44
2023/05/19 12:02:56;;;;;;;3.03;1.80;;;24.30;51.30;;;;;;5086469;28;20020;-45
2023/05/19 12:05:25;;;;;;;3.45;1.73;;;23.90;52.40;;;;;;5089052;28;20669;-43
2023/05/19 12:07:52;;;;;;;4.07;1.90;;;23.50;51.40;;;;;;5086235;28;20089;-43
2023/05/19 12:10:22;;;;;;;3.17;1.65;;;22.80;51.40;;;;;;5088934;28;20494;-44
2023/05/19 12:12:50;;;;;;;2.97;2.00;;;22.10;53.80;;;;;;5088673;28;20016;-45
2023/05/19 12:15:21;;;;;;;2.80;1.58;;;21.60;54.20;;;;;;5087123;28;20020;-45
2023/05/19 12:17:50;;;;;;;3.05;1.58;;;21.40;55.90;;;;;;5088693;28;20061;-44
2023/05/19 12:20:18;;;;;;;4.45;2.03;;;21.40;56.30;;;;;;5088531;28;20036;-43
2023/05/19 12:22:45;;;;;;;4.18;2.00;;;21.20;54.50;;;;;;5087209;28;20047;-46
2023/05/19 12:25:11;;;;;;;2.70;1.75;;;21.30;54.70;;;;;;5088326;28;20107;-43
2023/05/19 12:27:37;;;;;;;4.00;1.52;;;21.40;55.80;;;;;;5088048;28;20538;-44
2023/05/19 12:30:03;;;;;;;4.35;1.50;;;21.60;54.30;;;;;;5091836;28;20033;-43
2023/05/19 12:32:32;;;;;;;4.30;1.63;;;21.60;55.40;;;;;;5096782;28;20106;-44
2023/05/19 12:34:59;;;;;;;3.65;1.60;;;21.40;56.80;;;;;;5090585;28;20817;-42
2023/05/19 12:37:32;;;;;;;4.50;1.70;;;21.30;55.70;;;;;;5091420;28;20077;-43
2023/05/19 12:39:58;;;;;;;4.25;1.50;;;21.00;56.10;;;;;;5087292;28;20505;-43
2023/05/19 12:42:30;;;;;;;2.20;1.58;;;21.50;55.00;;;;;;5089763;28;20504;-43
2023/05/19 12:45:01;;;;;;;3.30;1.70;;;22.10;54.70;;;;;;5089257;28;20020;-44
2023/05/19 12:47:34;;;;;;;3.85;2.03;;;22.80;53.30;;;;;;5080550;28;20363;-43
2023/05/19 12:50:07;;;;;;;2.65;1.70;;;22.90;54.70;;;;;;5088089;28;20027;-44